createdAt,value
2023-07-30T00:00:43.354Z,100.00
2023-07-30T00:03:13.722Z,100.00
2023-07-30T00:09:21.000Z,100.00
2023-07-30T00:11:47.366Z,100.00
2023-07-30T00:14:13.762Z,100.00
2023-07-30T00:16:40.297Z,100.00
2023-07-30T00:19:06.725Z,100.00
2023-07-30T00:21:33.124Z,100.00
2023-07-30T00:24:00.357Z,100.00
2023-07-30T00:26:27.433Z,100.00
2023-07-30T00:28:53.897Z,100.00
2023-07-30T00:31:20.379Z,100.00
2023-07-30T00:33:46.904Z,100.00
2023-07-30T00:36:13.328Z,100.00
2023-07-30T00:38:39.731Z,100.00
2023-07-30T00:41:06.138Z,100.00
2023-07-30T00:43:32.519Z,100.00
2023-07-30T00:45:59.018Z,100.00
2023-07-30T00:48:25.475Z,100.00
2023-07-30T00:50:52.031Z,100.00
2023-07-30T00:53:21.021Z,100.00
2023-07-30T00:55:47.611Z,100.00
2023-07-30T00:58:14.344Z,100.00
2023-07-30T01:00:42.109Z,99.79
2023-07-30T01:03:08.625Z,99.47
2023-07-30T01:05:35.104Z,100.00
2023-07-30T01:08:01.465Z,100.00
2023-07-30T01:10:31.669Z,100.00
2023-07-30T01:13:00.425Z,99.63
2023-07-30T01:15:26.922Z,100.00
2023-07-30T01:17:53.415Z,100.00
2023-07-30T01:20:19.816Z,100.00
2023-07-30T01:22:46.258Z,99.80
2023-07-30T01:25:12.809Z,100.00
2023-07-30T01:27:43.335Z,100.00
2023-07-30T01:30:30.111Z,99.49
2023-07-30T01:32:57.580Z,100.00
2023-07-30T01:35:27.868Z,99.39
2023-07-30T01:37:55.083Z,100.00
2023-07-30T01:40:22.354Z,99.55
2023-07-30T01:42:50.344Z,99.12
2023-07-30T01:45:16.873Z,100.00
2023-07-30T01:47:43.629Z,100.00
2023-07-30T01:50:10.532Z,99.12
2023-07-30T01:52:37.044Z,99.95
2023-07-30T01:55:03.666Z,100.00
2023-07-30T01:57:30.109Z,97.58
2023-07-30T01:59:56.492Z,99.10
2023-07-30T02:02:23.022Z,97.08
2023-07-30T02:04:49.784Z,98.41
2023-07-30T02:07:16.280Z,98.77
2023-07-30T02:09:42.779Z,100.00
2023-07-30T02:12:09.255Z,100.00
2023-07-30T02:14:35.682Z,100.00
2023-07-30T02:17:02.036Z,99.67
2023-07-30T02:19:28.441Z,100.00
2023-07-30T02:21:54.822Z,99.69
2023-07-30T02:24:21.289Z,99.72
2023-07-30T02:26:48.748Z,100.00
2023-07-30T02:29:15.230Z,100.00
2023-07-30T02:31:42.076Z,99.38
2023-07-30T02:34:08.986Z,99.72
2023-07-30T02:36:35.497Z,99.88
2023-07-30T02:39:01.929Z,100.00
2023-07-30T02:41:28.319Z,99.86
2023-07-30T02:43:54.697Z,99.93
2023-07-30T02:46:21.116Z,100.00
2023-07-30T02:48:47.558Z,100.00
2023-07-30T02:51:14.031Z,100.00
2023-07-30T02:53:40.522Z,100.00
2023-07-30T02:56:07.018Z,100.00
2023-07-30T02:58:33.423Z,100.00
2023-07-30T03:01:09.618Z,100.00
2023-07-30T03:03:36.339Z,100.00
2023-07-30T03:06:02.979Z,100.00
2023-07-30T03:08:29.464Z,100.00
2023-07-30T03:10:59.040Z,100.00
2023-07-30T03:13:25.503Z,100.00
2023-07-30T03:15:51.903Z,100.00
2023-07-30T03:18:18.496Z,100.00
2023-07-30T03:20:44.908Z,100.00
2023-07-30T03:23:11.415Z,100.00
2023-07-30T03:25:37.793Z,100.00
2023-07-30T03:28:04.477Z,100.00
2023-07-30T03:30:30.912Z,100.00
2023-07-30T03:32:57.318Z,100.00
2023-07-30T03:35:23.736Z,100.00
2023-07-30T03:37:50.178Z,100.00
2023-07-30T03:40:16.662Z,100.00
2023-07-30T03:42:43.088Z,100.00
2023-07-30T03:45:09.953Z,100.00
2023-07-30T03:47:36.508Z,100.00
2023-07-30T03:50:02.979Z,100.00
2023-07-30T03:52:29.373Z,100.00
2023-07-30T03:54:55.825Z,100.00
2023-07-30T03:57:22.214Z,100.00
2023-07-30T03:59:48.677Z,100.00
2023-07-30T04:02:16.854Z,100.00
2023-07-30T04:04:49.434Z,100.00
2023-07-30T04:07:15.844Z,100.00
2023-07-30T04:09:42.438Z,100.00
2023-07-30T04:12:09.105Z,100.00
2023-07-30T04:14:35.543Z,100.00
2023-07-30T04:17:01.990Z,100.00
2023-07-30T04:19:28.412Z,100.00
2023-07-30T04:21:54.857Z,100.00
2023-07-30T04:24:21.276Z,100.00
2023-07-30T04:26:47.685Z,100.00
2023-07-30T04:29:15.222Z,100.00
2023-07-30T04:31:41.715Z,100.00
2023-07-30T04:34:08.349Z,100.00
2023-07-30T04:36:34.816Z,100.00
2023-07-30T04:39:01.330Z,100.00
2023-07-30T04:41:27.797Z,100.00
2023-07-30T04:43:54.373Z,100.00
2023-07-30T04:46:20.867Z,100.00
2023-07-30T04:48:47.296Z,100.00
2023-07-30T04:51:13.703Z,100.00
2023-07-30T04:53:40.156Z,100.00
2023-07-30T04:56:06.616Z,100.00
2023-07-30T04:58:36.142Z,100.00
2023-07-30T05:01:02.514Z,100.00
2023-07-30T05:03:29.077Z,100.00
2023-07-30T05:05:55.693Z,100.00
2023-07-30T05:08:22.215Z,100.00
2023-07-30T05:10:48.682Z,100.00
2023-07-30T05:13:15.116Z,100.00
2023-07-30T05:15:41.558Z,100.00
2023-07-30T05:18:08.104Z,100.00
2023-07-30T05:20:34.648Z,100.00
2023-07-30T05:23:01.119Z,100.00
2023-07-30T05:25:27.604Z,100.00
2023-07-30T05:27:54.106Z,100.00
2023-07-30T05:30:20.736Z,100.00
2023-07-30T05:32:47.272Z,100.00
2023-07-30T05:35:13.928Z,100.00
2023-07-30T05:37:40.284Z,100.00
2023-07-30T05:40:07.993Z,100.00
2023-07-30T05:42:34.517Z,100.00
2023-07-30T05:45:01.023Z,100.00
2023-07-30T05:47:27.478Z,100.00
2023-07-30T05:49:54.132Z,100.00
2023-07-30T05:52:20.638Z,100.00
2023-07-30T05:54:47.062Z,100.00
2023-07-30T05:57:13.545Z,100.00
2023-07-30T05:59:40.169Z,100.00
2023-07-30T06:02:06.843Z,100.00
2023-07-30T06:04:33.312Z,100.00
2023-07-30T06:07:05.990Z,100.00
2023-07-30T06:09:32.402Z,100.00
2023-07-30T06:11:59.199Z,100.00
2023-07-30T06:14:26.138Z,100.00
2023-07-30T06:16:54.078Z,100.00
2023-07-30T06:19:20.741Z,100.00
2023-07-30T06:21:47.472Z,100.00
2023-07-30T06:24:13.936Z,100.00
2023-07-30T06:26:40.349Z,100.00
2023-07-30T06:29:06.929Z,100.00
2023-07-30T06:31:33.421Z,100.00
2023-07-30T06:33:59.929Z,100.00
2023-07-30T06:36:26.445Z,100.00
2023-07-30T06:38:52.918Z,100.00
2023-07-30T06:41:19.516Z,100.00
2023-07-30T06:43:46.019Z,100.00
2023-07-30T06:46:12.558Z,100.00
2023-07-30T06:48:39.147Z,100.00
2023-07-30T06:51:07.694Z,100.00
2023-07-30T06:53:34.561Z,100.00
2023-07-30T06:56:01.022Z,100.00
2023-07-30T06:58:27.530Z,100.00
2023-07-30T07:00:54.095Z,100.00
2023-07-30T07:03:20.654Z,100.00
2023-07-30T07:05:59.552Z,100.00
2023-07-30T07:08:26.034Z,100.00
2023-07-30T07:10:52.431Z,100.00
2023-07-30T07:13:18.862Z,100.00
2023-07-30T07:15:46.001Z,100.00
2023-07-30T07:18:12.392Z,100.00
2023-07-30T07:20:39.051Z,100.00
2023-07-30T07:23:05.505Z,100.00
2023-07-30T07:25:32.002Z,100.00
2023-07-30T07:27:58.561Z,100.00
2023-07-30T07:30:25.103Z,100.00
2023-07-30T07:32:52.029Z,100.00
2023-07-30T07:35:21.306Z,100.00
2023-07-30T07:37:47.718Z,100.00
2023-07-30T07:40:14.260Z,100.00
2023-07-30T07:42:40.755Z,100.00
2023-07-30T07:45:08.651Z,100.00
2023-07-30T07:47:35.056Z,100.00
2023-07-30T07:50:01.459Z,100.00
2023-07-30T07:52:28.000Z,100.00
2023-07-30T07:54:54.494Z,100.00
2023-07-30T07:57:20.883Z,100.00
2023-07-30T07:59:48.041Z,100.00
2023-07-30T08:02:14.563Z,100.00
2023-07-30T08:04:41.213Z,100.00
2023-07-30T08:07:07.734Z,100.00
2023-07-30T08:09:34.159Z,100.00
2023-07-30T08:12:01.413Z,100.00
2023-07-30T08:14:27.835Z,100.00
2023-07-30T08:16:54.273Z,100.00
2023-07-30T08:19:20.675Z,100.00
2023-07-30T08:21:47.073Z,100.00
2023-07-30T08:24:13.464Z,100.00
2023-07-30T08:26:39.977Z,100.00
2023-07-30T08:29:07.212Z,100.00
2023-07-30T08:31:33.740Z,100.00
2023-07-30T08:34:00.200Z,100.00
2023-07-30T08:36:26.553Z,100.00
2023-07-30T08:38:53.017Z,100.00
2023-07-30T08:41:19.365Z,100.00
2023-07-30T08:43:49.785Z,100.00
2023-07-30T08:46:17.506Z,100.00
2023-07-30T08:48:46.485Z,100.00
2023-07-30T08:51:15.189Z,100.00
2023-07-30T08:53:43.098Z,100.00
2023-07-30T08:56:10.328Z,100.00
2023-07-30T08:58:37.744Z,98.17
2023-07-30T09:01:10.967Z,95.43
2023-07-30T09:03:40.213Z,90.75
2023-07-30T09:06:07.275Z,94.01
2023-07-30T09:08:33.791Z,91.42
2023-07-30T09:11:12.790Z,93.30
2023-07-30T09:13:40.631Z,90.93
2023-07-30T09:16:12.535Z,94.94
2023-07-30T09:18:43.860Z,98.79
2023-07-30T09:21:14.336Z,98.85
2023-07-30T09:23:44.773Z,100.00
2023-07-30T09:26:11.632Z,100.00
2023-07-30T09:28:38.550Z,100.00
2023-07-30T09:31:20.507Z,100.00
2023-07-30T09:33:48.430Z,100.00
2023-07-30T09:36:16.496Z,100.00
2023-07-30T09:38:44.046Z,100.00
2023-07-30T09:41:13.052Z,100.00
2023-07-30T09:43:40.402Z,100.00
2023-07-30T09:46:07.996Z,99.38
2023-07-30T09:48:35.476Z,99.11
2023-07-30T09:51:04.278Z,98.84
2023-07-30T09:53:35.373Z,94.85
2023-07-30T09:56:07.147Z,90.42
2023-07-30T09:58:33.761Z,89.72
2023-07-30T10:01:02.034Z,84.29
2023-07-30T10:03:29.161Z,85.47
2023-07-30T10:06:04.577Z,84.36
2023-07-30T10:08:36.263Z,81.19
2023-07-30T10:11:05.952Z,83.65
2023-07-30T10:13:32.824Z,83.67
2023-07-30T10:16:00.070Z,81.40
2023-07-30T10:18:43.307Z,81.60
2023-07-30T10:21:11.876Z,82.33
2023-07-30T10:23:59.467Z,83.40
2023-07-30T10:26:36.455Z,81.60
2023-07-30T10:29:20.893Z,79.61
2023-07-30T10:31:56.673Z,82.35
2023-07-30T10:34:27.548Z,79.32
2023-07-30T10:36:56.419Z,80.06
2023-07-30T10:39:28.867Z,78.48
2023-07-30T10:41:59.710Z,77.13
2023-07-30T10:44:29.554Z,72.20
2023-07-30T10:46:58.150Z,70.30
2023-07-30T10:49:25.093Z,69.59
2023-07-30T10:51:56.793Z,68.02
2023-07-30T10:54:23.191Z,63.89
2023-07-30T10:56:49.993Z,62.67
2023-07-30T10:59:16.910Z,60.24
2023-07-30T11:01:45.395Z,60.92
2023-07-30T11:04:18.561Z,62.27
2023-07-30T11:06:50.300Z,60.06
2023-07-30T11:09:27.656Z,57.90
2023-07-30T11:11:55.828Z,59.05
2023-07-30T11:14:26.189Z,59.85
2023-07-30T11:16:55.229Z,61.95
2023-07-30T11:19:21.639Z,64.34
2023-07-30T11:21:54.776Z,63.09
2023-07-30T11:24:22.258Z,62.12
2023-07-30T11:27:00.111Z,62.81
2023-07-30T11:29:26.956Z,60.51
2023-07-30T11:31:57.695Z,60.71
2023-07-30T11:34:24.596Z,63.56
2023-07-30T11:36:51.211Z,59.62
2023-07-30T11:39:17.714Z,63.15
2023-07-30T11:41:44.322Z,62.31
2023-07-30T11:44:30.636Z,60.64
2023-07-30T11:46:56.995Z,62.03
2023-07-30T11:49:23.528Z,60.58
2023-07-30T11:51:50.525Z,62.92
2023-07-30T11:54:21.822Z,62.97
2023-07-30T11:56:48.253Z,62.78
2023-07-30T11:59:14.935Z,63.30
2023-07-30T12:01:43.422Z,61.86
2023-07-30T12:04:10.139Z,63.49
2023-07-30T12:06:51.156Z,60.38
2023-07-30T12:09:20.581Z,61.28
2023-07-30T12:11:51.985Z,62.89
2023-07-30T12:14:19.210Z,62.50
2023-07-30T12:16:46.321Z,60.32
2023-07-30T12:19:12.679Z,60.96
2023-07-30T12:21:39.969Z,59.67
2023-07-30T12:24:06.539Z,60.37
2023-07-30T12:26:32.984Z,59.88
2023-07-30T12:28:59.377Z,60.27
2023-07-30T12:31:25.845Z,59.11
2023-07-30T12:33:52.306Z,59.56
2023-07-30T12:36:18.645Z,53.41
2023-07-30T12:38:47.178Z,53.77
2023-07-30T12:41:14.187Z,54.21
2023-07-30T12:43:40.580Z,52.45
2023-07-30T12:46:07.242Z,52.90
2023-07-30T12:48:33.638Z,48.54
2023-07-30T12:51:00.621Z,51.52
2023-07-30T12:53:26.986Z,49.65
2023-07-30T12:55:53.455Z,51.66
2023-07-30T12:58:19.843Z,49.61
2023-07-30T13:00:46.233Z,52.53
2023-07-30T13:03:12.615Z,52.75
2023-07-30T13:05:39.028Z,51.11
2023-07-30T13:08:05.451Z,53.06
2023-07-30T13:10:31.830Z,53.23
2023-07-30T13:12:58.208Z,52.70
2023-07-30T13:15:24.734Z,53.06
2023-07-30T13:17:51.076Z,50.48
2023-07-30T13:20:20.010Z,48.89
2023-07-30T13:22:46.826Z,50.18
2023-07-30T13:25:13.191Z,49.20
2023-07-30T13:27:39.610Z,50.80
2023-07-30T13:30:07.127Z,46.86
2023-07-30T13:32:33.704Z,47.90
2023-07-30T13:35:00.124Z,49.96
2023-07-30T13:37:26.563Z,49.18
2023-07-30T13:39:52.922Z,48.51
2023-07-30T13:42:19.350Z,49.40
2023-07-30T13:44:45.808Z,50.46
2023-07-30T13:47:14.904Z,49.02
2023-07-30T13:49:41.871Z,47.34
2023-07-30T13:52:08.450Z,48.27
2023-07-30T13:54:34.968Z,49.06
2023-07-30T13:57:05.073Z,48.11
2023-07-30T13:59:32.224Z,46.15
2023-07-30T14:01:58.631Z,44.88
2023-07-30T14:04:24.997Z,46.46
2023-07-30T14:06:51.905Z,46.67
2023-07-30T14:09:18.307Z,48.47
2023-07-30T14:11:47.535Z,50.07
2023-07-30T14:14:14.016Z,49.52
2023-07-30T14:16:40.442Z,49.46
2023-07-30T14:19:06.901Z,46.77
2023-07-30T14:21:33.336Z,47.59
2023-07-30T14:23:59.672Z,47.06
2023-07-30T14:26:26.020Z,48.26
2023-07-30T14:28:52.418Z,49.07
2023-07-30T14:31:18.845Z,48.49
2023-07-30T14:33:45.210Z,48.32
2023-07-30T14:36:12.867Z,47.44
2023-07-30T14:38:39.602Z,47.18
2023-07-30T14:41:06.821Z,49.11
2023-07-30T14:43:33.310Z,47.63
2023-07-30T14:45:59.759Z,47.01
2023-07-30T14:48:26.733Z,47.71
2023-07-30T14:50:53.152Z,47.71
2023-07-30T14:53:19.725Z,48.50
2023-07-30T14:55:46.208Z,45.87
2023-07-30T14:58:12.694Z,46.47
2023-07-30T15:00:39.173Z,45.95
2023-07-30T15:03:05.958Z,46.80
2023-07-30T15:05:33.952Z,46.69
2023-07-30T15:08:00.591Z,46.40
2023-07-30T15:10:27.032Z,46.61
2023-07-30T15:12:53.431Z,48.20
2023-07-30T15:15:19.816Z,47.82
2023-07-30T15:17:46.303Z,50.20
2023-07-30T15:20:12.848Z,49.77
2023-07-30T15:22:39.364Z,49.38
2023-07-30T15:25:06.806Z,49.13
2023-07-30T15:27:33.194Z,48.17
2023-07-30T15:29:59.686Z,48.52
2023-07-30T15:32:26.116Z,49.22
2023-07-30T15:34:52.633Z,49.10
2023-07-30T15:37:19.057Z,49.13
2023-07-30T15:39:45.440Z,48.70
2023-07-30T15:42:11.812Z,50.47
2023-07-30T15:44:38.249Z,49.99
2023-07-30T15:47:04.918Z,47.61
2023-07-30T15:49:31.893Z,49.52
2023-07-30T15:51:58.244Z,48.50
2023-07-30T15:54:35.509Z,49.00
2023-07-30T15:57:02.338Z,48.94
2023-07-30T15:59:28.797Z,50.25
2023-07-30T16:01:56.713Z,49.13
2023-07-30T16:04:23.139Z,48.66
2023-07-30T16:06:49.628Z,48.73
2023-07-30T16:09:16.679Z,47.96
2023-07-30T16:11:43.151Z,47.97
2023-07-30T16:14:09.548Z,49.44
2023-07-30T16:16:39.162Z,49.00
2023-07-30T16:19:07.217Z,49.97
2023-07-30T16:21:35.486Z,49.29
2023-07-30T16:24:03.131Z,49.74
2023-07-30T16:26:29.536Z,49.57
2023-07-30T16:28:57.330Z,49.21
2023-07-30T16:31:23.707Z,49.91
2023-07-30T16:33:50.138Z,50.51
2023-07-30T16:36:16.599Z,49.16
2023-07-30T16:38:43.790Z,50.84
2023-07-30T16:41:10.542Z,52.01
2023-07-30T16:43:37.040Z,50.49
2023-07-30T16:46:04.455Z,51.89
2023-07-30T16:48:31.573Z,50.78
2023-07-30T16:50:57.974Z,51.35
2023-07-30T16:53:24.453Z,52.29
2023-07-30T16:55:50.907Z,51.34
2023-07-30T16:58:17.406Z,50.64
2023-07-30T17:00:44.659Z,50.28
2023-07-30T17:03:11.154Z,51.54
2023-07-30T17:05:37.571Z,51.39
2023-07-30T17:08:04.948Z,51.68
2023-07-30T17:10:31.488Z,53.13
2023-07-30T17:12:57.873Z,53.79
2023-07-30T17:15:24.220Z,54.40
2023-07-30T17:17:50.668Z,52.39
2023-07-30T17:20:17.236Z,53.21
2023-07-30T17:22:43.592Z,52.20
2023-07-30T17:25:10.333Z,53.34
2023-07-30T17:27:36.718Z,53.26
2023-07-30T17:30:03.692Z,53.28
2023-07-30T17:32:30.452Z,51.84
2023-07-30T17:34:57.014Z,52.76
2023-07-30T17:37:23.410Z,51.54
2023-07-30T17:39:49.814Z,52.68
2023-07-30T17:42:16.274Z,52.78
2023-07-30T17:44:42.745Z,51.88
2023-07-30T17:47:09.226Z,53.53
2023-07-30T17:49:35.571Z,52.60
2023-07-30T17:52:02.120Z,52.92
2023-07-30T17:54:28.461Z,52.68
2023-07-30T17:56:54.833Z,54.40
2023-07-30T17:59:22.876Z,55.47
2023-07-30T18:01:49.340Z,57.00
2023-07-30T18:04:15.756Z,54.85
2023-07-30T18:06:42.090Z,57.80
2023-07-30T18:09:08.440Z,57.77
2023-07-30T18:11:34.848Z,56.30
2023-07-30T18:14:01.293Z,56.01
2023-07-30T18:16:27.690Z,57.18
2023-07-30T18:18:54.106Z,57.55
2023-07-30T18:21:20.531Z,57.79
2023-07-30T18:23:47.332Z,57.66
2023-07-30T18:26:13.908Z,57.54
2023-07-30T18:28:40.481Z,58.09
2023-07-30T18:31:07.148Z,59.33
2023-07-30T18:33:33.635Z,59.03
2023-07-30T18:36:00.660Z,58.78
2023-07-30T18:38:27.369Z,59.12
2023-07-30T18:40:53.861Z,60.23
2023-07-30T18:43:20.975Z,59.48
2023-07-30T18:45:48.496Z,60.31
2023-07-30T18:48:19.491Z,60.17
2023-07-30T18:50:52.770Z,60.40
2023-07-30T18:53:19.235Z,61.21
2023-07-30T18:55:45.658Z,61.17
2023-07-30T18:58:12.022Z,60.36
2023-07-30T19:00:39.022Z,60.43
2023-07-30T19:03:05.604Z,60.53
2023-07-30T19:05:32.161Z,60.21
2023-07-30T19:08:01.305Z,59.76
2023-07-30T19:10:27.702Z,59.50
2023-07-30T19:12:56.367Z,59.78
2023-07-30T19:15:25.158Z,58.98
2023-07-30T19:17:51.664Z,60.36
2023-07-30T19:20:18.196Z,59.16
2023-07-30T19:22:44.746Z,59.70
2023-07-30T19:25:13.139Z,60.16
2023-07-30T19:27:39.645Z,59.74
2023-07-30T19:30:07.829Z,61.00
2023-07-30T19:32:34.317Z,59.02
2023-07-30T19:35:01.986Z,59.62
2023-07-30T19:37:28.485Z,60.30
2023-07-30T19:39:56.580Z,62.05
2023-07-30T19:42:22.986Z,62.91
2023-07-30T19:44:49.351Z,62.06
2023-07-30T19:47:18.732Z,61.22
2023-07-30T19:49:45.542Z,64.24
2023-07-30T19:52:13.204Z,64.17
2023-07-30T19:54:39.594Z,63.96
2023-07-30T19:57:06.283Z,64.44
2023-07-30T19:59:32.709Z,67.30
2023-07-30T20:02:00.108Z,66.30
2023-07-30T20:04:26.626Z,64.96
2023-07-30T20:06:55.010Z,67.90
2023-07-30T20:09:21.406Z,66.74
2023-07-30T20:11:47.797Z,66.71
2023-07-30T20:14:14.205Z,68.06
2023-07-30T20:16:41.143Z,67.20
2023-07-30T20:19:07.818Z,65.98
2023-07-30T20:21:34.253Z,66.65
2023-07-30T20:24:00.788Z,65.95
2023-07-30T20:26:27.166Z,66.11
2023-07-30T20:28:53.627Z,66.67
2023-07-30T20:31:20.359Z,67.21
2023-07-30T20:33:46.863Z,67.39
2023-07-30T20:36:13.241Z,67.89
2023-07-30T20:38:39.699Z,67.68
2023-07-30T20:41:06.141Z,68.29
2023-07-30T20:43:32.558Z,68.84
2023-07-30T20:45:59.017Z,68.89
2023-07-30T20:48:26.671Z,69.25
2023-07-30T20:50:59.266Z,69.25
2023-07-30T20:53:25.741Z,69.12
2023-07-30T20:55:52.126Z,70.30
2023-07-30T20:58:21.198Z,70.16
2023-07-30T21:00:47.584Z,70.04
2023-07-30T21:03:14.117Z,70.50
2023-07-30T21:05:40.477Z,70.60
2023-07-30T21:08:06.892Z,70.99
2023-07-30T21:10:33.252Z,71.46
2023-07-30T21:12:59.600Z,71.43
2023-07-30T21:15:26.018Z,71.82
2023-07-30T21:17:52.469Z,72.11
2023-07-30T21:20:18.873Z,72.26
2023-07-30T21:22:45.335Z,72.26
2023-07-30T21:25:12.135Z,73.09
2023-07-30T21:27:39.003Z,73.03
2023-07-30T21:30:07.953Z,73.48
2023-07-30T21:32:34.978Z,73.43
2023-07-30T21:35:01.467Z,73.92
2023-07-30T21:37:27.904Z,73.85
2023-07-30T21:39:59.525Z,74.24
2023-07-30T21:42:27.603Z,74.66
2023-07-30T21:44:54.086Z,74.87
2023-07-30T21:47:20.523Z,74.73
2023-07-30T21:49:47.702Z,74.89
2023-07-30T21:52:33.496Z,74.85
2023-07-30T21:54:59.905Z,74.89
2023-07-30T21:57:26.439Z,75.53
2023-07-30T21:59:53.641Z,75.75
2023-07-30T22:02:21.029Z,75.68
2023-07-30T22:04:47.592Z,75.67
2023-07-30T22:07:13.950Z,75.61
2023-07-30T22:09:41.788Z,75.74
2023-07-30T22:12:08.861Z,75.95
2023-07-30T22:14:35.259Z,77.83
2023-07-30T22:17:01.669Z,77.03
2023-07-30T22:19:28.168Z,78.44
2023-07-30T22:21:54.555Z,78.66
2023-07-30T22:24:21.004Z,79.20
2023-07-30T22:26:47.583Z,78.69
2023-07-30T22:29:13.987Z,78.21
2023-07-30T22:31:41.612Z,78.46
2023-07-30T22:34:08.019Z,78.26
2023-07-30T22:36:34.368Z,78.35
2023-07-30T22:39:00.789Z,77.53
2023-07-30T22:41:28.316Z,78.24
2023-07-30T22:43:54.842Z,78.79
2023-07-30T22:46:21.727Z,78.64
2023-07-30T22:48:48.149Z,78.69
2023-07-30T22:51:14.496Z,78.75
2023-07-30T22:53:40.894Z,78.61
2023-07-30T22:56:07.232Z,78.83
2023-07-30T22:58:35.679Z,79.36
2023-07-30T23:01:02.240Z,79.29
2023-07-30T23:03:28.872Z,79.59
2023-07-30T23:05:55.327Z,80.96
2023-07-30T23:08:21.742Z,80.76
2023-07-30T23:10:48.117Z,82.02
2023-07-30T23:13:14.512Z,84.66
2023-07-30T23:15:42.857Z,84.60
2023-07-30T23:18:09.260Z,85.58
2023-07-30T23:20:35.748Z,87.33
2023-07-30T23:23:02.856Z,86.70
2023-07-30T23:25:29.254Z,88.71
2023-07-30T23:27:55.712Z,89.02
2023-07-30T23:30:22.175Z,87.48
2023-07-30T23:32:48.562Z,87.37
2023-07-30T23:35:15.066Z,86.85
2023-07-30T23:37:44.398Z,86.99
2023-07-30T23:40:11.522Z,87.84
2023-07-30T23:42:37.990Z,87.24
2023-07-30T23:45:05.202Z,88.23
2023-07-30T23:47:31.584Z,86.84
2023-07-30T23:49:58.185Z,87.27
2023-07-30T23:52:24.577Z,87.02
2023-07-30T23:54:51.468Z,86.78
2023-07-30T23:57:17.833Z,86.75
2023-07-30T23:59:44.393Z,86.21
